createdAt,value
2022-09-28T00:01:37.431Z,98979.84
2022-09-28T00:06:39.237Z,98980.81
2022-09-28T00:11:40.805Z,98984.72
2022-09-28T00:16:43.935Z,98995.19
2022-09-28T00:21:45.514Z,98987.19
2022-09-28T00:26:52.332Z,98991.22
2022-09-28T00:31:55.932Z,98993.09
2022-09-28T00:36:58.340Z,98989.44
2022-09-28T00:41:59.867Z,98985.03
2022-09-28T00:47:19.295Z,98971.22
2022-09-28T00:52:44.653Z,98976.22
2022-09-28T00:57:51.717Z,98977.59
2022-09-28T01:02:53.494Z,98965.63
2022-09-28T01:07:56.587Z,98959.25
2022-09-28T01:12:58.332Z,98963.66
2022-09-28T01:18:14.055Z,98956.13
2022-09-28T01:23:32.101Z,98950.53
2022-09-28T01:28:33.652Z,98945.66
2022-09-28T01:34:04.883Z,98960.75
2022-09-28T01:39:13.284Z,98957.56
2022-09-28T01:44:18.372Z,98953.94
2022-09-28T01:49:22.550Z,98954.34
2022-09-28T01:54:31.713Z,98956.41
2022-09-28T01:59:38.570Z,98939.91
2022-09-28T02:04:44.569Z,98936.28
2022-09-28T02:09:51.889Z,98936.22
2022-09-28T02:15:00.705Z,98933.59
2022-09-28T02:20:03.183Z,98936.13
2022-09-28T02:25:22.852Z,98941.50
2022-09-28T02:30:24.771Z,98946.81
2022-09-28T02:35:26.696Z,98935.13
2022-09-28T02:40:32.387Z,98952.31
2022-09-28T02:46:11.644Z,98948.91
2022-09-28T02:51:48.719Z,98951.16
2022-09-28T02:57:13.043Z,98944.91
2022-09-28T03:02:23.798Z,98960.63
2022-09-28T03:07:31.365Z,98955.16
2022-09-28T03:12:34.489Z,98950.88
2022-09-28T03:17:36.207Z,98956.91
2022-09-28T03:22:38.960Z,98948.25
2022-09-28T03:27:40.449Z,98956.91
2022-09-28T03:32:45.062Z,98953.50
2022-09-28T03:37:47.074Z,98956.31
2022-09-28T03:42:48.649Z,98958.22
2022-09-28T03:47:50.221Z,98960.59
2022-09-28T03:52:53.485Z,98953.50
2022-09-28T03:57:55.185Z,98953.63
2022-09-28T04:02:56.877Z,98952.16
2022-09-28T04:07:58.408Z,98958.28
2022-09-28T04:13:00.093Z,98956.38
2022-09-28T04:18:01.707Z,98954.34
2022-09-28T04:23:18.184Z,98948.81
2022-09-28T04:28:19.921Z,98954.34
2022-09-28T04:33:21.481Z,98956.31
2022-09-28T04:38:41.536Z,98957.03
2022-09-28T04:43:47.271Z,98964.50
2022-09-28T04:48:50.055Z,98965.41
2022-09-28T04:54:10.241Z,98973.19
2022-09-28T04:59:11.851Z,98973.19
2022-09-28T05:04:14.349Z,98975.81
2022-09-28T05:09:38.245Z,98968.50
2022-09-28T05:14:40.337Z,98981.25
2022-09-28T05:19:41.838Z,98984.72
2022-09-28T05:24:43.474Z,98995.03
2022-09-28T05:29:45.065Z,98988.78
2022-09-28T05:35:15.526Z,98983.56
2022-09-28T05:40:20.486Z,98980.16
2022-09-28T05:45:22.731Z,98980.06
2022-09-28T05:50:25.108Z,98980.56
2022-09-28T05:55:27.042Z,98984.03
2022-09-28T06:00:30.059Z,98990.53
2022-09-28T06:05:33.920Z,98984.56
2022-09-28T06:10:35.758Z,98986.47
2022-09-28T06:15:38.272Z,98999.59
2022-09-28T06:20:40.258Z,98997.34
2022-09-28T06:25:44.323Z,99002.63
2022-09-28T06:30:45.879Z,99006.72
2022-09-28T06:35:50.869Z,99014.69
2022-09-28T06:40:52.424Z,99023.22
2022-09-28T06:45:54.496Z,99026.19
2022-09-28T06:51:11.370Z,99032.50
2022-09-28T06:56:33.156Z,99034.53
2022-09-28T07:01:35.087Z,99025.97
2022-09-28T07:06:51.809Z,99036.56
2022-09-28T07:12:24.538Z,99051.84
2022-09-28T07:17:28.491Z,99047.63
2022-09-28T07:22:42.454Z,99062.06
2022-09-28T07:27:46.929Z,99064.34
2022-09-28T07:33:09.487Z,99071.59
2022-09-28T07:38:21.747Z,99075.47
2022-09-28T07:43:23.775Z,99084.06
2022-09-28T07:48:27.626Z,99093.53
2022-09-28T07:53:39.743Z,99091.13
2022-09-28T07:59:04.096Z,99099.03
2022-09-28T08:04:25.927Z,99102.63
2022-09-28T08:09:27.434Z,99108.13
2022-09-28T08:14:48.318Z,99107.22
2022-09-28T08:20:12.925Z,99114.47
2022-09-28T08:25:15.061Z,99119.97
2022-09-28T08:30:16.880Z,99122.19
2022-09-28T08:35:48.339Z,99128.22
2022-09-28T08:41:09.635Z,99120.34
2022-09-28T08:46:37.417Z,99131.38
2022-09-28T08:51:58.773Z,99135.56
2022-09-28T08:57:29.578Z,99135.69
2022-09-28T09:02:35.067Z,99155.31
2022-09-28T09:07:59.585Z,99144.56
2022-09-28T09:13:40.307Z,99152.38
2022-09-28T09:19:04.954Z,99162.69
2022-09-28T09:24:27.681Z,99161.63
2022-09-28T09:29:42.464Z,99171.22
2022-09-28T09:35:12.433Z,99165.97
2022-09-28T09:41:02.598Z,99173.16
2022-09-28T09:46:30.203Z,99171.31
2022-09-28T09:52:01.308Z,99181.38
2022-09-28T09:57:13.145Z,99176.81
2022-09-28T10:02:35.637Z,99178.41
2022-09-28T10:07:52.934Z,99183.00
2022-09-28T10:12:56.607Z,99174.06
2022-09-28T10:18:06.226Z,99181.81
2022-09-28T10:23:41.415Z,99181.28
2022-09-28T10:28:49.251Z,99182.34
2022-09-28T10:33:53.514Z,99189.06
2022-09-28T10:38:55.273Z,99186.53
2022-09-28T10:44:04.111Z,99186.53
2022-09-28T10:49:18.731Z,99197.41
2022-09-28T10:54:30.524Z,99188.34
2022-09-28T10:59:38.053Z,99193.13
2022-09-28T11:05:05.971Z,99193.69
2022-09-28T11:10:28.922Z,99190.56
2022-09-28T11:15:43.144Z,99185.28
2022-09-28T11:20:47.826Z,99188.03
2022-09-28T11:26:07.132Z,99186.00
2022-09-28T11:31:10.173Z,99193.41
2022-09-28T11:37:00.941Z,99183.91
2022-09-28T11:42:29.041Z,99187.09
2022-09-28T11:47:49.271Z,99194.03
2022-09-28T11:53:03.876Z,99197.34
2022-09-28T11:58:33.479Z,99193.66
2022-09-28T12:03:42.762Z,99192.75
2022-09-28T12:08:52.986Z,99201.41
2022-09-28T12:14:13.921Z,99194.81
2022-09-28T12:19:21.796Z,99193.53
2022-09-28T12:24:43.999Z,99197.66
2022-09-28T12:30:01.821Z,99199.53
2022-09-28T12:35:11.756Z,99195.22
2022-09-28T12:40:41.119Z,99191.97
2022-09-28T12:46:12.559Z,99190.06
2022-09-28T12:51:29.810Z,99195.63
2022-09-28T12:56:41.651Z,99190.44
2022-09-28T13:02:18.259Z,99189.13
2022-09-28T13:07:31.505Z,99191.00
2022-09-28T13:12:51.035Z,99188.56
2022-09-28T13:18:12.572Z,99180.56
2022-09-28T13:23:25.549Z,99187.06
2022-09-28T13:28:28.960Z,99182.91
2022-09-28T13:33:38.261Z,99178.16
2022-09-28T13:38:46.459Z,99175.88
2022-09-28T13:44:12.810Z,99183.97
2022-09-28T13:49:44.725Z,99181.09
2022-09-28T13:55:10.726Z,99183.72
2022-09-28T14:00:45.728Z,99181.59
2022-09-28T14:06:28.240Z,99187.50
2022-09-28T14:11:35.793Z,99190.31
2022-09-28T14:16:39.381Z,99188.09
2022-09-28T14:21:59.437Z,99187.09
2022-09-28T14:27:12.216Z,99185.03
2022-09-28T14:32:16.719Z,99189.28
2022-09-28T14:37:31.783Z,99193.19
2022-09-28T14:42:33.601Z,99192.06
2022-09-28T14:47:37.995Z,99187.78
2022-09-28T14:52:44.914Z,99186.28
2022-09-28T14:57:53.156Z,99189.03
2022-09-28T15:03:01.012Z,99190.97
2022-09-28T15:08:02.589Z,99182.31
2022-09-28T15:13:16.275Z,99190.44
2022-09-28T15:18:43.990Z,99200.84
2022-09-28T15:23:45.704Z,99198.78
2022-09-28T15:28:47.420Z,99197.75
2022-09-28T15:33:48.940Z,99212.94
2022-09-28T15:39:04.376Z,99204.47
2022-09-28T15:44:24.409Z,99217.47
2022-09-28T15:49:39.602Z,99220.50
2022-09-28T15:54:44.243Z,99234.28
2022-09-28T15:59:53.828Z,99234.03
2022-09-28T16:04:58.005Z,99240.13
2022-09-28T16:10:13.498Z,99233.16
2022-09-28T16:15:34.823Z,99233.00
2022-09-28T16:20:38.981Z,99244.13
2022-09-28T16:25:52.815Z,99238.13
2022-09-28T16:31:23.264Z,99247.41
2022-09-28T16:36:38.632Z,99247.63
2022-09-28T16:41:43.712Z,99259.94
2022-09-28T16:46:45.882Z,99266.44
2022-09-28T16:51:48.076Z,99265.59
2022-09-28T16:56:50.024Z,99271.19
2022-09-28T17:01:51.740Z,99276.63
2022-09-28T17:06:55.687Z,99285.44
2022-09-28T17:11:57.180Z,99287.97
2022-09-28T17:17:08.070Z,99294.53
2022-09-28T17:22:10.450Z,99299.31
2022-09-28T17:27:19.137Z,99297.81
2022-09-28T17:32:20.778Z,99307.56
2022-09-28T17:37:22.397Z,99315.25
2022-09-28T17:42:23.915Z,99309.06
2022-09-28T17:47:25.433Z,99318.25
2022-09-28T17:52:26.954Z,99323.16
2022-09-28T17:57:28.543Z,99328.53
2022-09-28T18:02:30.262Z,99332.06
2022-09-28T18:07:31.829Z,99330.69
2022-09-28T18:12:35.194Z,99329.53
2022-09-28T18:17:37.062Z,99333.09
2022-09-28T18:22:38.719Z,99338.88
2022-09-28T18:27:40.980Z,99342.94
2022-09-28T18:32:42.635Z,99339.34
2022-09-28T18:37:44.268Z,99340.06
2022-09-28T18:42:45.824Z,99347.94
2022-09-28T18:47:47.407Z,99342.34
2022-09-28T18:52:48.881Z,99354.72
2022-09-28T18:57:50.395Z,99355.94
2022-09-28T19:02:55.036Z,99363.50
2022-09-28T19:07:57.006Z,99357.66
2022-09-28T19:12:58.528Z,99358.94
2022-09-28T19:18:00.051Z,99360.47
2022-09-28T19:23:01.628Z,99358.06
2022-09-28T19:28:03.302Z,99365.66
2022-09-28T19:33:04.947Z,99366.75
2022-09-28T19:38:06.425Z,99367.94
2022-09-28T19:43:07.937Z,99378.88
2022-09-28T19:48:09.473Z,99379.88
2022-09-28T19:53:10.934Z,99384.81
2022-09-28T19:58:12.437Z,99392.25
2022-09-28T20:03:14.336Z,99388.03
2022-09-28T20:08:16.050Z,99392.25
2022-09-28T20:13:18.102Z,99392.47
2022-09-28T20:18:19.596Z,99392.22
2022-09-28T20:23:21.091Z,99391.34
2022-09-28T20:28:22.734Z,99394.97
2022-09-28T20:33:28.836Z,99386.25
2022-09-28T20:38:30.604Z,99387.22
2022-09-28T20:43:32.156Z,99394.56
2022-09-28T20:48:33.938Z,99389.25
2022-09-28T20:53:37.250Z,99388.97
2022-09-28T20:58:39.922Z,99383.09
2022-09-28T21:03:46.550Z,99393.88
2022-09-28T21:08:48.792Z,99387.53
2022-09-28T21:13:57.487Z,99394.03
2022-09-28T21:18:59.219Z,99389.22
2022-09-28T21:24:01.052Z,99386.97
2022-09-28T21:29:10.078Z,99388.78
2022-09-28T21:34:20.029Z,99392.16
2022-09-28T21:39:21.714Z,99396.53
2022-09-28T21:44:23.253Z,99395.09
2022-09-28T21:49:24.809Z,99398.06
2022-09-28T21:54:26.298Z,99406.06
2022-09-28T21:59:27.776Z,99400.66
2022-09-28T22:04:29.243Z,99398.97
2022-09-28T22:09:30.740Z,99408.06
2022-09-28T22:14:32.266Z,99401.41
2022-09-28T22:19:33.761Z,99405.72
2022-09-28T22:24:35.259Z,99404.81
2022-09-28T22:29:36.870Z,99406.69
2022-09-28T22:34:38.429Z,99403.78
2022-09-28T22:39:39.938Z,99404.25
2022-09-28T22:44:41.458Z,99410.50
2022-09-28T22:49:42.956Z,99407.94
2022-09-28T22:54:44.431Z,99420.16
2022-09-28T22:59:45.913Z,99428.22
2022-09-28T23:04:47.427Z,99414.94
2022-09-28T23:09:48.915Z,99415.09
2022-09-28T23:14:50.425Z,99419.50
2022-09-28T23:19:51.901Z,99405.88
2022-09-28T23:24:53.406Z,99408.59
2022-09-28T23:29:55.017Z,99406.16
2022-09-28T23:34:56.515Z,99399.97
2022-09-28T23:39:58.031Z,99409.03
2022-09-28T23:44:59.524Z,99408.66
2022-09-28T23:50:01.016Z,99399.44
2022-09-28T23:55:02.552Z,99401.44
